Shibin el-Kom, Egypt
Current Conditions -  °F | °C
As of 12:00 AM on Monday 24 Nov 2014 (Local Time) from HECA Reporting Station
Clear Clear  
Wind Chill: 59°   Ceiling: Unl
Heat Index: 59°   Visibility: 6mi
Dew Point: 48°   Wind: 5mph
Humidity: 67%   Direction: 240°WSW
Pressure: 30"   Gusts: NA
Location:  30.59°N, 30.9°E
Report Text: HECA 232200Z 24004KT CAVOK 15/09 Q1016 NOSIG
Loading
Personal Weather Stations






























Interactive Weather Map New forecast layout! Learn more

10-Day Weather Forecast

Advertisements
Track Severe Weather on mobile